sensor_id;sensor_type;location;lat;lon;timestamp;temperature;humidity
18067;DHT22;9158;51.528;7.192;2022-09-03T00:00:34;17.70;99.90
18067;DHT22;9158;51.528;7.192;2022-09-03T00:01:12;17.60;99.90
18067;DHT22;9158;51.528;7.192;2022-09-03T00:01:47;17.60;99.90
18067;DHT22;9158;51.528;7.192;2022-09-03T00:02:24;17.70;99.90
18067;DHT22;9158;51.528;7.192;2022-09-03T00:03:01;17.60;99.90
18067;DHT22;9158;51.528;7.192;2022-09-03T00:03:38;17.60;99.90
18067;DHT22;9158;51.528;7.192;2022-09-03T00:04:17;17.60;99.90
18067;DHT22;9158;51.528;7.192;2022-09-03T00:04:54;17.50;99.90
18067;DHT22;9158;51.528;7.192;2022-09-03T00:05:36;17.50;99.90
18067;DHT22;9158;51.528;7.192;2022-09-03T00:06:11;17.50;99.90
18067;DHT22;9158;51.528;7.192;2022-09-03T00:06:48;17.50;99.90
18067;DHT22;9158;51.528;7.192;2022-09-03T00:07:29;17.50;99.90
18067;DHT22;9158;51.528;7.192;2022-09-03T00:08:05;17.50;99.90
18067;DHT22;9158;51.528;7.192;2022-09-03T00:08:44;17.50;99.90
18067;DHT22;9158;51.528;7.192;2022-09-03T00:09:23;17.50;99.90
18067;DHT22;9158;51.528;7.192;2022-09-03T00:10:01;17.50;99.90
18067;DHT22;9158;51.528;7.192;2022-09-03T00:10:38;17.50;99.90
18067;DHT22;9158;51.528;7.192;2022-09-03T00:11:18;17.50;99.90
18067;DHT22;9158;51.528;7.192;2022-09-03T00:11:54;17.50;99.90
18067;DHT22;9158;51.528;7.192;2022-09-03T00:12:32;17.50;99.90
18067;DHT22;9158;51.528;7.192;2022-09-03T00:13:06;17.40;99.90
18067;DHT22;9158;51.528;7.192;2022-09-03T00:13:44;17.40;99.90
18067;DHT22;9158;51.528;7.192;2022-09-03T00:14:19;17.40;99.90
18067;DHT22;9158;51.528;7.192;2022-09-03T00:14:56;17.40;99.90
18067;DHT22;9158;51.528;7.192;2022-09-03T00:15:32;17.30;99.90
18067;DHT22;9158;51.528;7.192;2022-09-03T00:16:08;17.30;99.90
18067;DHT22;9158;51.528;7.192;2022-09-03T00:16:44;17.40;99.90
18067;DHT22;9158;51.528;7.192;2022-09-03T00:17:18;17.30;99.90
18067;DHT22;9158;51.528;7.192;2022-09-03T00:17:54;17.30;99.90
18067;DHT22;9158;51.528;7.192;2022-09-03T00:18:31;17.30;99.90
18067;DHT22;9158;51.528;7.192;2022-09-03T00:19:03;17.30;99.90
18067;DHT22;9158;51.528;7.192;2022-09-03T00:19:38;17.30;99.90
18067;DHT22;9158;51.528;7.192;2022-09-03T00:20:14;17.30;99.90
18067;DHT22;9158;51.528;7.192;2022-09-03T00:20:51;17.40;99.90
18067;DHT22;9158;51.528;7.192;2022-09-03T00:21:31;17.30;99.90
18067;DHT22;9158;51.528;7.192;2022-09-03T00:22:09;17.30;99.90
18067;DHT22;9158;51.528;7.192;2022-09-03T00:22:45;17.30;99.90
18067;DHT22;9158;51.528;7.192;2022-09-03T00:23:20;17.30;99.90
18067;DHT22;9158;51.528;7.192;2022-09-03T00:23:52;17.30;99.90
18067;DHT22;9158;51.528;7.192;2022-09-03T00:24:28;17.30;99.90
18067;DHT22;9158;51.528;7.192;2022-09-03T00:25:05;17.30;99.90
18067;DHT22;9158;51.528;7.192;2022-09-03T00:25:39;17.30;99.90
18067;DHT22;9158;51.528;7.192;2022-09-03T00:26:21;17.20;99.90
18067;DHT22;9158;51.528;7.192;2022-09-03T00:26:59;17.20;99.90
18067;DHT22;9158;51.528;7.192;2022-09-03T00:27:35;17.20;99.90
18067;DHT22;9158;51.528;7.192;2022-09-03T00:28:12;17.10;99.90
18067;DHT22;9158;51.528;7.192;2022-09-03T00:28:48;17.20;99.90
18067;DHT22;9158;51.528;7.192;2022-09-03T00:29:24;17.20;99.90
18067;DHT22;9158;51.528;7.192;2022-09-03T00:30:02;17.20;99.90
18067;DHT22;9158;51.528;7.192;2022-09-03T00:30:34;17.20;99.90
18067;DHT22;9158;51.528;7.192;2022-09-03T00:31:09;17.20;99.90
18067;DHT22;9158;51.528;7.192;2022-09-03T00:31:46;17.20;99.90
18067;DHT22;9158;51.528;7.192;2022-09-03T00:32:23;17.20;99.90
18067;DHT22;9158;51.528;7.192;2022-09-03T00:32:58;17.20;99.90
18067;DHT22;9158;51.528;7.192;2022-09-03T00:33:33;17.20;99.90
18067;DHT22;9158;51.528;7.192;2022-09-03T00:34:09;17.10;99.90
18067;DHT22;9158;51.528;7.192;2022-09-03T00:34:47;17.10;99.90
18067;DHT22;9158;51.528;7.192;2022-09-03T00:35:26;17.10;99.90
18067;DHT22;9158;51.528;7.192;2022-09-03T00:36:05;17.10;99.90
18067;DHT22;9158;51.528;7.192;2022-09-03T00:36:42;17.10;99.90
18067;DHT22;9158;51.528;7.192;2022-09-03T00:37:13;17.10;99.90
18067;DHT22;9158;51.528;7.192;2022-09-03T00:37:44;17.00;99.90
18067;DHT22;9158;51.528;7.192;2022-09-03T00:38:18;17.00;99.90
18067;DHT22;9158;51.528;7.192;2022-09-03T00:38:51;17.00;99.90
18067;DHT22;9158;51.528;7.192;2022-09-03T00:39:25;16.90;99.90
18067;DHT22;9158;51.528;7.192;2022-09-03T00:39:57;16.90;99.90
18067;DHT22;9158;51.528;7.192;2022-09-03T00:40:37;16.90;99.90
18067;DHT22;9158;51.528;7.192;2022-09-03T00:41:17;16.90;99.90
18067;DHT22;9158;51.528;7.192;2022-09-03T00:42:02;16.90;99.90
18067;DHT22;9158;51.528;7.192;2022-09-03T00:42:42;16.90;99.90
18067;DHT22;9158;51.528;7.192;2022-09-03T00:43:25;16.90;99.90
18067;DHT22;9158;51.528;7.192;2022-09-03T00:44:14;16.90;99.90
18067;DHT22;9158;51.528;7.192;2022-09-03T00:45:01;16.90;99.90
18067;DHT22;9158;51.528;7.192;2022-09-03T00:45:38;16.90;99.90
18067;DHT22;9158;51.528;7.192;2022-09-03T00:46:18;16.80;99.90
18067;DHT22;9158;51.528;7.192;2022-09-03T00:46:58;16.80;99.90
18067;DHT22;9158;51.528;7.192;2022-09-03T00:47:38;16.80;99.90
18067;DHT22;9158;51.528;7.192;2022-09-03T00:48:19;16.80;99.90
18067;DHT22;9158;51.528;7.192;2022-09-03T00:49:08;16.80;99.90
18067;DHT22;9158;51.528;7.192;2022-09-03T00:49:56;16.80;99.90
18067;DHT22;9158;51.528;7.192;2022-09-03T00:50:37;16.70;99.90
18067;DHT22;9158;51.528;7.192;2022-09-03T00:51:19;16.70;99.90
18067;DHT22;9158;51.528;7.192;2022-09-03T00:52:04;16.70;99.90
18067;DHT22;9158;51.528;7.192;2022-09-03T00:52:47;16.70;99.90
18067;DHT22;9158;51.528;7.192;2022-09-03T00:53:27;16.70;99.90
18067;DHT22;9158;51.528;7.192;2022-09-03T00:54:08;16.70;99.90
18067;DHT22;9158;51.528;7.192;2022-09-03T00:54:48;16.60;99.90
18067;DHT22;9158;51.528;7.192;2022-09-03T00:55:31;16.60;99.90
18067;DHT22;9158;51.528;7.192;2022-09-03T00:56:12;16.60;99.90
18067;DHT22;9158;51.528;7.192;2022-09-03T00:56:49;16.50;99.90
18067;DHT22;9158;51.528;7.192;2022-09-03T00:57:31;16.50;99.90
18067;DHT22;9158;51.528;7.192;2022-09-03T00:58:14;16.50;99.90
18067;DHT22;9158;51.528;7.192;2022-09-03T00:59:10;16.50;99.90
18067;DHT22;9158;51.528;7.192;2022-09-03T00:59:50;16.50;99.90
18067;DHT22;9158;51.528;7.192;2022-09-03T01:00:28;16.40;99.90
18067;DHT22;9158;51.528;7.192;2022-09-03T01:01:06;16.40;99.90
18067;DHT22;9158;51.528;7.192;2022-09-03T01:01:44;16.40;99.90
18067;DHT22;9158;51.528;7.192;2022-09-03T01:02:26;16.40;99.90
18067;DHT22;9158;51.528;7.192;2022-09-03T01:03:04;16.40;99.90
18067;DHT22;9158;51.528;7.192;2022-09-03T01:03:40;16.40;99.90
18067;DHT22;9158;51.528;7.192;2022-09-03T01:04:30;16.30;99.90
18067;DHT22;9158;51.528;7.192;2022-09-03T01:05:09;16.30;1.00
18067;DHT22;9158;51.528;7.192;2022-09-03T01:05:53;16.30;1.00
18067;DHT22;9158;51.528;7.192;2022-09-03T01:06:32;16.30;1.00
18067;DHT22;9158;51.528;7.192;2022-09-03T01:07:12;16.20;1.00
18067;DHT22;9158;51.528;7.192;2022-09-03T01:07:52;16.20;1.00
18067;DHT22;9158;51.528;7.192;2022-09-03T01:08:41;16.20;1.00
18067;DHT22;9158;51.528;7.192;2022-09-03T01:09:29;16.10;1.00
18067;DHT22;9158;51.528;7.192;2022-09-03T01:10:13;16.10;1.00
18067;DHT22;9158;51.528;7.192;2022-09-03T01:10:53;16.10;1.00
18067;DHT22;9158;51.528;7.192;2022-09-03T01:11:34;16.10;1.00
18067;DHT22;9158;51.528;7.192;2022-09-03T01:12:15;16.10;1.00
18067;DHT22;9158;51.528;7.192;2022-09-03T01:12:54;16.10;1.00
18067;DHT22;9158;51.528;7.192;2022-09-03T01:13:29;16.10;1.00
18067;DHT22;9158;51.528;7.192;2022-09-03T01:14:10;16.10;1.00
18067;DHT22;9158;51.528;7.192;2022-09-03T01:14:58;16.00;1.00
18067;DHT22;9158;51.528;7.192;2022-09-03T01:15:38;16.00;1.00
18067;DHT22;9158;51.528;7.192;2022-09-03T01:16:23;16.00;1.00
18067;DHT22;9158;51.528;7.192;2022-09-03T01:17:00;15.90;1.00
18067;DHT22;9158;51.528;7.192;2022-09-03T01:17:45;15.90;1.00
18067;DHT22;9158;51.528;7.192;2022-09-03T01:18:24;17.40;1.00
18067;DHT22;9158;51.528;7.192;2022-09-03T01:19:11;15.80;1.00
18067;DHT22;9158;51.528;7.192;2022-09-03T01:20:03;15.80;1.00
18067;DHT22;9158;51.528;7.192;2022-09-03T01:20:50;15.80;1.00
18067;DHT22;9158;51.528;7.192;2022-09-03T01:21:40;15.70;1.00
18067;DHT22;9158;51.528;7.192;2022-09-03T01:22:29;15.70;1.00
18067;DHT22;9158;51.528;7.192;2022-09-03T01:23:35;15.60;1.00
18067;DHT22;9158;51.528;7.192;2022-09-03T01:25:17;15.70;1.00
18067;DHT22;9158;51.528;7.192;2022-09-03T01:25:53;15.60;1.00
18067;DHT22;9158;51.528;7.192;2022-09-03T01:26:52;15.60;1.00
18067;DHT22;9158;51.528;7.192;2022-09-03T01:27:38;15.70;1.00
18067;DHT22;9158;51.528;7.192;2022-09-03T01:28:25;15.70;1.00
18067;DHT22;9158;51.528;7.192;2022-09-03T01:29:09;15.70;1.00
18067;DHT22;9158;51.528;7.192;2022-09-03T01:29:49;15.70;1.00
18067;DHT22;9158;51.528;7.192;2022-09-03T01:30:26;15.70;1.00
18067;DHT22;9158;51.528;7.192;2022-09-03T01:31:06;15.70;1.00
18067;DHT22;9158;51.528;7.192;2022-09-03T01:31:52;15.70;1.00
18067;DHT22;9158;51.528;7.192;2022-09-03T01:32:34;15.70;1.00
18067;DHT22;9158;51.528;7.192;2022-09-03T01:33:13;15.70;1.00
18067;DHT22;9158;51.528;7.192;2022-09-03T01:33:53;15.70;1.00
18067;DHT22;9158;51.528;7.192;2022-09-03T01:34:42;15.70;1.00
18067;DHT22;9158;51.528;7.192;2022-09-03T01:35:22;15.70;1.00
18067;DHT22;9158;51.528;7.192;2022-09-03T01:36:05;15.70;1.00
18067;DHT22;9158;51.528;7.192;2022-09-03T01:36:46;15.70;1.00
18067;DHT22;9158;51.528;7.192;2022-09-03T01:37:32;15.70;1.00
18067;DHT22;9158;51.528;7.192;2022-09-03T01:38:13;15.60;1.00
18067;DHT22;9158;51.528;7.192;2022-09-03T01:38:50;15.60;1.00
18067;DHT22;9158;51.528;7.192;2022-09-03T01:39:30;15.60;1.00
18067;DHT22;9158;51.528;7.192;2022-09-03T01:40:14;15.60;1.00
18067;DHT22;9158;51.528;7.192;2022-09-03T01:40:56;15.70;1.00
18067;DHT22;9158;51.528;7.192;2022-09-03T01:41:59;15.70;1.00
18067;DHT22;9158;51.528;7.192;2022-09-03T01:42:54;15.60;1.00
18067;DHT22;9158;51.528;7.192;2022-09-03T01:43:38;15.60;1.00
18067;DHT22;9158;51.528;7.192;2022-09-03T01:44:21;15.60;1.00
18067;DHT22;9158;51.528;7.192;2022-09-03T01:45:06;15.60;1.00
18067;DHT22;9158;51.528;7.192;2022-09-03T01:45:45;15.60;1.00
18067;DHT22;9158;51.528;7.192;2022-09-03T01:46:23;15.60;1.00
18067;DHT22;9158;51.528;7.192;2022-09-03T01:47:02;15.60;1.00
18067;DHT22;9158;51.528;7.192;2022-09-03T01:47:54;15.50;1.00
18067;DHT22;9158;51.528;7.192;2022-09-03T01:48:38;15.50;1.00
18067;DHT22;9158;51.528;7.192;2022-09-03T01:49:18;16.30;1.00
18067;DHT22;9158;51.528;7.192;2022-09-03T01:49:55;16.50;1.00
18067;DHT22;9158;51.528;7.192;2022-09-03T01:50:38;15.50;1.00
18067;DHT22;9158;51.528;7.192;2022-09-03T01:51:18;15.50;1.00
18067;DHT22;9158;51.528;7.192;2022-09-03T01:51:54;15.50;1.00
18067;DHT22;9158;51.528;7.192;2022-09-03T01:52:41;15.50;1.00
18067;DHT22;9158;51.528;7.192;2022-09-03T01:53:24;15.50;1.00
18067;DHT22;9158;51.528;7.192;2022-09-03T01:54:15;15.50;1.00
18067;DHT22;9158;51.528;7.192;2022-09-03T01:54:59;15.50;1.00
18067;DHT22;9158;51.528;7.192;2022-09-03T01:55:33;15.50;1.00
18067;DHT22;9158;51.528;7.192;2022-09-03T01:56:19;15.50;1.00
18067;DHT22;9158;51.528;7.192;2022-09-03T01:57:19;15.50;1.00
18067;DHT22;9158;51.528;7.192;2022-09-03T01:57:56;15.60;1.00
18067;DHT22;9158;51.528;7.192;2022-09-03T01:58:30;15.60;1.00
18067;DHT22;9158;51.528;7.192;2022-09-03T01:59:10;15.60;1.00
18067;DHT22;9158;51.528;7.192;2022-09-03T01:59:54;15.60;1.00
18067;DHT22;9158;51.528;7.192;2022-09-03T02:00:30;15.60;1.00
18067;DHT22;9158;51.528;7.192;2022-09-03T02:01:08;15.60;1.00
18067;DHT22;9158;51.528;7.192;2022-09-03T02:01:45;15.60;1.00
18067;DHT22;9158;51.528;7.192;2022-09-03T02:02:20;15.60;1.00
18067;DHT22;9158;51.528;7.192;2022-09-03T02:02:52;15.60;1.00
18067;DHT22;9158;51.528;7.192;2022-09-03T02:03:25;15.60;1.00
18067;DHT22;9158;51.528;7.192;2022-09-03T02:04:13;15.60;1.00
18067;DHT22;9158;51.528;7.192;2022-09-03T02:04:57;15.50;1.00
18067;DHT22;9158;51.528;7.192;2022-09-03T02:05:29;15.50;1.00
18067;DHT22;9158;51.528;7.192;2022-09-03T02:06:01;15.50;1.00
18067;DHT22;9158;51.528;7.192;2022-09-03T02:06:33;15.50;1.00
18067;DHT22;9158;51.528;7.192;2022-09-03T02:07:06;15.50;1.00
18067;DHT22;9158;51.528;7.192;2022-09-03T02:07:40;15.60;1.00
18067;DHT22;9158;51.528;7.192;2022-09-03T02:08:11;15.60;1.00
18067;DHT22;9158;51.528;7.192;2022-09-03T02:08:42;15.50;1.00
18067;DHT22;9158;51.528;7.192;2022-09-03T02:09:14;15.50;1.00
18067;DHT22;9158;51.528;7.192;2022-09-03T02:09:45;15.50;1.00
18067;DHT22;9158;51.528;7.192;2022-09-03T02:10:18;15.60;1.00
18067;DHT22;9158;51.528;7.192;2022-09-03T02:10:52;15.60;1.00
18067;DHT22;9158;51.528;7.192;2022-09-03T02:11:24;15.60;1.00
18067;DHT22;9158;51.528;7.192;2022-09-03T02:11:59;15.50;1.00
18067;DHT22;9158;51.528;7.192;2022-09-03T02:12:35;15.60;1.00
18067;DHT22;9158;51.528;7.192;2022-09-03T02:13:10;15.60;1.00
18067;DHT22;9158;51.528;7.192;2022-09-03T02:13:45;15.60;1.00
18067;DHT22;9158;51.528;7.192;2022-09-03T02:14:19;15.50;1.00
18067;DHT22;9158;51.528;7.192;2022-09-03T02:14:51;15.50;1.00
18067;DHT22;9158;51.528;7.192;2022-09-03T02:15:24;15.50;1.00
18067;DHT22;9158;51.528;7.192;2022-09-03T02:15:59;15.30;1.00
18067;DHT22;9158;51.528;7.192;2022-09-03T02:16:33;15.60;1.00
18067;DHT22;9158;51.528;7.192;2022-09-03T02:17:06;15.60;1.00
18067;DHT22;9158;51.528;7.192;2022-09-03T02:17:37;15.60;1.00
18067;DHT22;9158;51.528;7.192;2022-09-03T02:18:15;15.60;1.00
18067;DHT22;9158;51.528;7.192;2022-09-03T02:18:50;15.60;1.00
18067;DHT22;9158;51.528;7.192;2022-09-03T02:19:22;15.60;1.00
18067;DHT22;9158;51.528;7.192;2022-09-03T02:19:54;15.60;1.00
18067;DHT22;9158;51.528;7.192;2022-09-03T02:20:26;15.60;1.00
18067;DHT22;9158;51.528;7.192;2022-09-03T02:20:59;15.60;1.00
18067;DHT22;9158;51.528;7.192;2022-09-03T02:21:33;15.60;1.00
18067;DHT22;9158;51.528;7.192;2022-09-03T02:22:04;15.70;1.00
18067;DHT22;9158;51.528;7.192;2022-09-03T02:22:36;15.70;1.00
18067;DHT22;9158;51.528;7.192;2022-09-03T02:23:07;15.70;1.00
18067;DHT22;9158;51.528;7.192;2022-09-03T02:23:39;15.70;1.00
18067;DHT22;9158;51.528;7.192;2022-09-03T02:24:11;15.70;1.00
18067;DHT22;9158;51.528;7.192;2022-09-03T02:24:42;15.70;1.00
18067;DHT22;9158;51.528;7.192;2022-09-03T02:25:14;15.60;1.00
18067;DHT22;9158;51.528;7.192;2022-09-03T02:25:50;15.60;1.00
18067;DHT22;9158;51.528;7.192;2022-09-03T02:26:23;15.60;1.00
18067;DHT22;9158;51.528;7.192;2022-09-03T02:26:55;15.60;1.00
18067;DHT22;9158;51.528;7.192;2022-09-03T02:27:26;15.60;1.00
18067;DHT22;9158;51.528;7.192;2022-09-03T02:27:58;15.70;1.00
18067;DHT22;9158;51.528;7.192;2022-09-03T02:28:31;15.60;1.00
18067;DHT22;9158;51.528;7.192;2022-09-03T02:29:03;15.80;1.00
18067;DHT22;9158;51.528;7.192;2022-09-03T02:29:35;15.60;1.00
18067;DHT22;9158;51.528;7.192;2022-09-03T02:30:08;15.60;1.00
18067;DHT22;9158;51.528;7.192;2022-09-03T02:30:40;15.60;1.00
18067;DHT22;9158;51.528;7.192;2022-09-03T02:31:11;15.60;1.00
18067;DHT22;9158;51.528;7.192;2022-09-03T02:31:42;15.60;1.00
18067;DHT22;9158;51.528;7.192;2022-09-03T02:32:14;15.60;1.00
18067;DHT22;9158;51.528;7.192;2022-09-03T02:32:46;15.60;1.00
18067;DHT22;9158;51.528;7.192;2022-09-03T02:33:17;15.40;1.00
18067;DHT22;9158;51.528;7.192;2022-09-03T02:33:49;15.60;1.00
18067;DHT22;9158;51.528;7.192;2022-09-03T02:34:21;15.50;1.00
18067;DHT22;9158;51.528;7.192;2022-09-03T02:34:52;15.60;1.00
18067;DHT22;9158;51.528;7.192;2022-09-03T02:35:23;15.60;1.00
18067;DHT22;9158;51.528;7.192;2022-09-03T02:35:55;15.60;1.00
18067;DHT22;9158;51.528;7.192;2022-09-03T02:36:29;15.60;1.00
18067;DHT22;9158;51.528;7.192;2022-09-03T02:37:11;15.60;1.00
18067;DHT22;9158;51.528;7.192;2022-09-03T02:37:43;15.60;1.00
18067;DHT22;9158;51.528;7.192;2022-09-03T02:38:16;15.60;1.00
18067;DHT22;9158;51.528;7.192;2022-09-03T02:38:47;15.60;1.00
18067;DHT22;9158;51.528;7.192;2022-09-03T02:39:19;15.60;1.00
18067;DHT22;9158;51.528;7.192;2022-09-03T02:39:50;15.60;1.00
18067;DHT22;9158;51.528;7.192;2022-09-03T02:40:21;15.60;1.00
18067;DHT22;9158;51.528;7.192;2022-09-03T02:40:52;15.60;1.00
18067;DHT22;9158;51.528;7.192;2022-09-03T02:41:25;15.60;1.00
18067;DHT22;9158;51.528;7.192;2022-09-03T02:41:57;15.60;1.00
18067;DHT22;9158;51.528;7.192;2022-09-03T02:42:29;15.60;1.00
18067;DHT22;9158;51.528;7.192;2022-09-03T02:43:01;15.50;1.00
18067;DHT22;9158;51.528;7.192;2022-09-03T02:43:38;15.50;1.00
18067;DHT22;9158;51.528;7.192;2022-09-03T02:44:13;15.50;1.00
18067;DHT22;9158;51.528;7.192;2022-09-03T02:44:52;15.50;1.00
18067;DHT22;9158;51.528;7.192;2022-09-03T02:45:27;15.50;1.00
18067;DHT22;9158;51.528;7.192;2022-09-03T02:46:00;15.50;1.00
18067;DHT22;9158;51.528;7.192;2022-09-03T02:46:34;15.50;1.00
18067;DHT22;9158;51.528;7.192;2022-09-03T02:47:08;15.50;1.00
18067;DHT22;9158;51.528;7.192;2022-09-03T02:47:40;15.50;1.00
18067;DHT22;9158;51.528;7.192;2022-09-03T02:48:16;15.60;1.00
18067;DHT22;9158;51.528;7.192;2022-09-03T02:48:51;15.50;1.00
18067;DHT22;9158;51.528;7.192;2022-09-03T02:49:22;15.50;1.00
18067;DHT22;9158;51.528;7.192;2022-09-03T02:49:53;15.50;1.00
18067;DHT22;9158;51.528;7.192;2022-09-03T02:50:25;15.50;1.00
18067;DHT22;9158;51.528;7.192;2022-09-03T02:50:56;15.50;1.00
18067;DHT22;9158;51.528;7.192;2022-09-03T02:51:32;15.50;1.00
18067;DHT22;9158;51.528;7.192;2022-09-03T02:52:06;15.50;1.00
18067;DHT22;9158;51.528;7.192;2022-09-03T02:52:39;15.50;1.00
18067;DHT22;9158;51.528;7.192;2022-09-03T02:53:10;15.60;1.00
18067;DHT22;9158;51.528;7.192;2022-09-03T02:53:42;15.60;1.00
18067;DHT22;9158;51.528;7.192;2022-09-03T02:54:13;15.50;1.00
18067;DHT22;9158;51.528;7.192;2022-09-03T02:54:44;15.50;1.00
18067;DHT22;9158;51.528;7.192;2022-09-03T02:55:16;15.50;1.00
18067;DHT22;9158;51.528;7.192;2022-09-03T02:55:49;15.60;1.00
18067;DHT22;9158;51.528;7.192;2022-09-03T02:56:20;15.50;1.00
18067;DHT22;9158;51.528;7.192;2022-09-03T02:56:56;15.50;1.00
18067;DHT22;9158;51.528;7.192;2022-09-03T02:57:27;15.50;1.00
18067;DHT22;9158;51.528;7.192;2022-09-03T02:57:58;15.50;1.00
18067;DHT22;9158;51.528;7.192;2022-09-03T02:58:31;15.50;1.00
18067;DHT22;9158;51.528;7.192;2022-09-03T02:59:02;15.50;1.00
18067;DHT22;9158;51.528;7.192;2022-09-03T02:59:34;15.50;1.00
18067;DHT22;9158;51.528;7.192;2022-09-03T03:00:09;15.50;1.00
18067;DHT22;9158;51.528;7.192;2022-09-03T03:00:40;14.80;1.00
18067;DHT22;9158;51.528;7.192;2022-09-03T03:01:11;15.40;1.00
18067;DHT22;9158;51.528;7.192;2022-09-03T03:01:43;15.40;1.00
18067;DHT22;9158;51.528;7.192;2022-09-03T03:02:14;15.40;1.00
18067;DHT22;9158;51.528;7.192;2022-09-03T03:02:45;16.90;1.00
18067;DHT22;9158;51.528;7.192;2022-09-03T03:03:18;15.40;1.00
18067;DHT22;9158;51.528;7.192;2022-09-03T03:03:49;15.40;1.00
18067;DHT22;9158;51.528;7.192;2022-09-03T03:04:20;15.40;1.00
18067;DHT22;9158;51.528;7.192;2022-09-03T03:04:53;15.40;1.00
18067;DHT22;9158;51.528;7.192;2022-09-03T03:05:30;15.40;1.00
18067;DHT22;9158;51.528;7.192;2022-09-03T03:06:05;15.30;1.00
18067;DHT22;9158;51.528;7.192;2022-09-03T03:06:37;15.30;1.00
18067;DHT22;9158;51.528;7.192;2022-09-03T03:07:08;15.30;1.00
18067;DHT22;9158;51.528;7.192;2022-09-03T03:07:40;15.30;1.00
18067;DHT22;9158;51.528;7.192;2022-09-03T03:08:12;15.30;1.00
18067;DHT22;9158;51.528;7.192;2022-09-03T03:08:44;15.20;1.00
18067;DHT22;9158;51.528;7.192;2022-09-03T03:09:16;15.20;1.00
18067;DHT22;9158;51.528;7.192;2022-09-03T03:09:48;15.20;1.00
18067;DHT22;9158;51.528;7.192;2022-09-03T03:10:19;15.20;1.00
18067;DHT22;9158;51.528;7.192;2022-09-03T03:10:51;15.20;1.00
18067;DHT22;9158;51.528;7.192;2022-09-03T03:11:23;15.20;1.00
18067;DHT22;9158;51.528;7.192;2022-09-03T03:11:56;15.20;1.00
18067;DHT22;9158;51.528;7.192;2022-09-03T03:12:27;15.20;1.00
18067;DHT22;9158;51.528;7.192;2022-09-03T03:13:00;15.20;1.00
18067;DHT22;9158;51.528;7.192;2022-09-03T03:13:32;15.20;1.00
18067;DHT22;9158;51.528;7.192;2022-09-03T03:14:03;15.10;1.00
18067;DHT22;9158;51.528;7.192;2022-09-03T03:14:35;15.10;1.00
18067;DHT22;9158;51.528;7.192;2022-09-03T03:15:08;15.10;1.00
18067;DHT22;9158;51.528;7.192;2022-09-03T03:15:39;15.10;1.00
18067;DHT22;9158;51.528;7.192;2022-09-03T03:16:12;15.00;1.00
18067;DHT22;9158;51.528;7.192;2022-09-03T03:16:44;14.90;1.00
18067;DHT22;9158;51.528;7.192;2022-09-03T03:17:16;15.00;1.00
18067;DHT22;9158;51.528;7.192;2022-09-03T03:17:47;15.00;1.00
18067;DHT22;9158;51.528;7.192;2022-09-03T03:18:18;15.00;1.00
18067;DHT22;9158;51.528;7.192;2022-09-03T03:18:50;15.00;1.00
18067;DHT22;9158;51.528;7.192;2022-09-03T03:19:22;15.00;1.00
18067;DHT22;9158;51.528;7.192;2022-09-03T03:19:54;15.00;1.00
18067;DHT22;9158;51.528;7.192;2022-09-03T03:20:25;15.00;1.00
18067;DHT22;9158;51.528;7.192;2022-09-03T03:20:56;15.00;1.00
18067;DHT22;9158;51.528;7.192;2022-09-03T03:21:28;15.00;1.00
18067;DHT22;9158;51.528;7.192;2022-09-03T03:21:59;15.00;1.00
18067;DHT22;9158;51.528;7.192;2022-09-03T03:22:30;14.90;1.00
18067;DHT22;9158;51.528;7.192;2022-09-03T03:23:02;14.90;1.00
18067;DHT22;9158;51.528;7.192;2022-09-03T03:23:34;14.90;1.00
18067;DHT22;9158;51.528;7.192;2022-09-03T03:24:06;14.90;1.00
18067;DHT22;9158;51.528;7.192;2022-09-03T03:24:38;14.90;1.00
18067;DHT22;9158;51.528;7.192;2022-09-03T03:25:09;14.90;1.00
18067;DHT22;9158;51.528;7.192;2022-09-03T03:25:40;14.90;1.00
18067;DHT22;9158;51.528;7.192;2022-09-03T03:26:14;14.90;1.00
18067;DHT22;9158;51.528;7.192;2022-09-03T03:26:48;14.90;1.00
18067;DHT22;9158;51.528;7.192;2022-09-03T03:27:18;14.90;1.00
18067;DHT22;9158;51.528;7.192;2022-09-03T03:27:50;14.90;1.00
18067;DHT22;9158;51.528;7.192;2022-09-03T03:28:26;14.90;1.00
18067;DHT22;9158;51.528;7.192;2022-09-03T03:28:58;14.90;1.00
18067;DHT22;9158;51.528;7.192;2022-09-03T03:29:30;14.90;1.00
18067;DHT22;9158;51.528;7.192;2022-09-03T03:30:02;14.90;1.00
18067;DHT22;9158;51.528;7.192;2022-09-03T03:30:36;14.80;1.00
18067;DHT22;9158;51.528;7.192;2022-09-03T03:31:09;14.80;1.00
18067;DHT22;9158;51.528;7.192;2022-09-03T03:31:42;14.80;1.00
18067;DHT22;9158;51.528;7.192;2022-09-03T03:32:13;14.80;1.00
18067;DHT22;9158;51.528;7.192;2022-09-03T03:32:44;14.80;1.00
18067;DHT22;9158;51.528;7.192;2022-09-03T03:33:16;14.80;1.00
18067;DHT22;9158;51.528;7.192;2022-09-03T03:33:50;14.80;1.00
18067;DHT22;9158;51.528;7.192;2022-09-03T03:34:21;14.80;1.00
18067;DHT22;9158;51.528;7.192;2022-09-03T03:34:53;14.80;1.00
18067;DHT22;9158;51.528;7.192;2022-09-03T03:35:24;14.80;1.00
18067;DHT22;9158;51.528;7.192;2022-09-03T03:35:55;14.80;1.00
18067;DHT22;9158;51.528;7.192;2022-09-03T03:36:28;14.80;1.00
18067;DHT22;9158;51.528;7.192;2022-09-03T03:37:00;14.80;1.00
18067;DHT22;9158;51.528;7.192;2022-09-03T03:37:33;14.80;1.00
18067;DHT22;9158;51.528;7.192;2022-09-03T03:38:05;14.70;1.00
18067;DHT22;9158;51.528;7.192;2022-09-03T03:38:37;14.70;1.00
18067;DHT22;9158;51.528;7.192;2022-09-03T03:39:08;14.70;1.00
18067;DHT22;9158;51.528;7.192;2022-09-03T03:39:39;14.70;1.00
18067;DHT22;9158;51.528;7.192;2022-09-03T03:40:12;14.80;1.00
18067;DHT22;9158;51.528;7.192;2022-09-03T03:40:43;14.80;1.00
18067;DHT22;9158;51.528;7.192;2022-09-03T03:41:16;14.80;1.00
18067;DHT22;9158;51.528;7.192;2022-09-03T03:41:48;14.70;1.00
18067;DHT22;9158;51.528;7.192;2022-09-03T03:42:19;14.70;1.00
18067;DHT22;9158;51.528;7.192;2022-09-03T03:42:50;14.70;1.00
18067;DHT22;9158;51.528;7.192;2022-09-03T03:43:23;14.70;1.00
18067;DHT22;9158;51.528;7.192;2022-09-03T03:43:55;14.70;1.00
18067;DHT22;9158;51.528;7.192;2022-09-03T03:44:27;14.70;1.00
18067;DHT22;9158;51.528;7.192;2022-09-03T03:44:59;14.70;1.00
18067;DHT22;9158;51.528;7.192;2022-09-03T03:45:32;14.60;1.00
18067;DHT22;9158;51.528;7.192;2022-09-03T03:46:04;14.60;1.00
18067;DHT22;9158;51.528;7.192;2022-09-03T03:46:38;14.60;1.00
18067;DHT22;9158;51.528;7.192;2022-09-03T03:47:09;14.70;1.00
18067;DHT22;9158;51.528;7.192;2022-09-03T03:47:40;14.60;1.00
18067;DHT22;9158;51.528;7.192;2022-09-03T03:48:12;14.60;1.00
18067;DHT22;9158;51.528;7.192;2022-09-03T03:48:43;14.60;1.00
18067;DHT22;9158;51.528;7.192;2022-09-03T03:49:17;14.60;1.00
18067;DHT22;9158;51.528;7.192;2022-09-03T03:49:49;14.60;1.00
18067;DHT22;9158;51.528;7.192;2022-09-03T03:50:19;14.60;1.00
18067;DHT22;9158;51.528;7.192;2022-09-03T03:51:26;14.50;1.00
18067;DHT22;9158;51.528;7.192;2022-09-03T03:51:56;14.60;1.00
18067;DHT22;9158;51.528;7.192;2022-09-03T03:52:29;14.60;1.00
18067;DHT22;9158;51.528;7.192;2022-09-03T03:53:00;14.50;1.00
18067;DHT22;9158;51.528;7.192;2022-09-03T03:53:31;14.60;1.00
18067;DHT22;9158;51.528;7.192;2022-09-03T03:54:02;14.60;1.00
18067;DHT22;9158;51.528;7.192;2022-09-03T03:54:34;14.60;1.00
18067;DHT22;9158;51.528;7.192;2022-09-03T03:55:06;14.60;1.00
18067;DHT22;9158;51.528;7.192;2022-09-03T03:55:37;14.60;1.00
18067;DHT22;9158;51.528;7.192;2022-09-03T03:56:10;14.60;1.00
18067;DHT22;9158;51.528;7.192;2022-09-03T03:56:42;14.60;1.00